createdAt,value
2018-06-01T00:00:52.318Z,68.41
2018-06-01T00:03:21.047Z,68.34
2018-06-01T00:05:49.425Z,68.56
2018-06-01T00:08:17.801Z,68.29
2018-06-01T00:10:46.346Z,68.35
2018-06-01T00:13:14.658Z,68.08
2018-06-01T00:15:42.966Z,68.22
2018-06-01T00:18:11.341Z,68.10
2018-06-01T00:20:39.657Z,67.89
2018-06-01T00:23:08.016Z,68.29
2018-06-01T00:25:37.101Z,68.91
2018-06-01T00:28:05.432Z,68.01
2018-06-01T00:30:33.758Z,68.21
2018-06-01T00:33:02.097Z,67.99
2018-06-01T00:35:30.418Z,67.96
2018-06-01T00:37:58.834Z,67.75
2018-06-01T00:40:27.541Z,67.90
2018-06-01T00:42:55.877Z,67.90
2018-06-01T00:45:24.217Z,67.93
2018-06-01T00:47:52.627Z,68.39
2018-06-01T00:50:20.983Z,68.27
2018-06-01T00:52:49.412Z,68.82
2018-06-01T00:55:24.565Z,68.65
2018-06-01T00:57:52.951Z,68.79
2018-06-01T01:00:21.347Z,68.72
2018-06-01T01:02:50.289Z,68.57
2018-06-01T01:05:18.726Z,68.94
2018-06-01T01:07:47.114Z,69.00
2018-06-01T01:10:15.993Z,68.96
2018-06-01T01:12:44.296Z,69.07
2018-06-01T01:15:12.632Z,69.30
2018-06-01T01:17:40.969Z,69.33
2018-06-01T01:20:09.309Z,69.37
2018-06-01T01:22:37.677Z,69.54
2018-06-01T01:25:06.872Z,69.35
2018-06-01T01:27:35.187Z,69.31
2018-06-01T01:30:03.553Z,69.22
2018-06-01T01:32:32.717Z,69.24
2018-06-01T01:35:01.043Z,69.44
2018-06-01T01:37:33.240Z,69.20
2018-06-01T01:40:01.590Z,68.98
2018-06-01T01:42:29.889Z,69.25
2018-06-01T01:44:58.493Z,69.12
2018-06-01T01:47:26.793Z,69.12
2018-06-01T01:49:55.177Z,69.12
2018-06-01T01:52:23.780Z,69.46
2018-06-01T01:54:52.890Z,69.31
2018-06-01T01:57:21.219Z,69.58
2018-06-01T01:59:49.572Z,69.57
2018-06-01T02:02:18.144Z,69.89
2018-06-01T02:04:46.457Z,70.09
2018-06-01T02:07:14.852Z,70.17
2018-06-01T02:09:43.166Z,70.33
2018-06-01T02:12:11.639Z,70.72
2018-06-01T02:14:40.767Z,71.13
2018-06-01T02:17:09.081Z,71.25
2018-06-01T02:19:37.414Z,71.41
2018-06-01T02:22:05.830Z,71.53
2018-06-01T02:24:34.135Z,71.80
2018-06-01T02:27:02.445Z,71.58
2018-06-01T02:29:31.674Z,71.67
2018-06-01T02:31:59.987Z,71.83
2018-06-01T02:34:28.319Z,71.94
2018-06-01T02:36:57.129Z,71.56
2018-06-01T02:39:25.443Z,72.02
2018-06-01T02:41:53.792Z,72.02
2018-06-01T02:44:22.163Z,71.85
2018-06-01T02:46:50.548Z,72.22
2018-06-01T02:49:18.918Z,72.25
2018-06-01T02:51:47.398Z,72.33
2018-06-01T02:54:15.710Z,72.09
2018-06-01T02:56:44.066Z,72.03
2018-06-01T02:59:12.408Z,71.77
2018-06-01T03:01:40.741Z,72.08
2018-06-01T03:04:09.075Z,72.04
2018-06-01T03:06:49.149Z,72.02
2018-06-01T03:09:17.445Z,72.02
2018-06-01T03:11:46.674Z,71.96
2018-06-01T03:14:15.202Z,72.05
2018-06-01T03:16:43.543Z,72.32
2018-06-01T03:19:11.867Z,72.17
2018-06-01T03:21:40.440Z,72.19
2018-06-01T03:24:08.737Z,71.93
2018-06-01T03:26:37.046Z,72.42
2018-06-01T03:29:05.586Z,72.46
2018-06-01T03:31:33.910Z,72.12
2018-06-01T03:34:02.223Z,71.89
2018-06-01T03:36:30.559Z,72.01
2018-06-01T03:38:58.889Z,72.19
2018-06-01T03:41:27.203Z,72.56
2018-06-01T03:43:55.610Z,72.44
2018-06-01T03:46:23.940Z,72.62
2018-06-01T03:48:52.264Z,72.51
2018-06-01T03:51:20.633Z,72.57
2018-06-01T03:53:48.961Z,72.67
2018-06-01T03:56:17.317Z,72.31
2018-06-01T03:58:45.940Z,72.50
2018-06-01T04:01:14.232Z,72.53
2018-06-01T04:03:42.568Z,72.62
2018-06-01T04:06:10.917Z,72.42
2018-06-01T04:08:39.215Z,72.70
2018-06-01T04:11:07.523Z,72.93
2018-06-01T04:13:35.979Z,72.44
2018-06-01T04:16:04.287Z,72.29
2018-06-01T04:18:32.640Z,72.22
2018-06-01T04:21:00.953Z,72.49
2018-06-01T04:23:29.278Z,72.95
2018-06-01T04:25:57.610Z,72.63
2018-06-01T04:28:26.109Z,73.19
2018-06-01T04:30:54.438Z,73.07
2018-06-01T04:33:22.765Z,72.32
2018-06-01T04:35:51.897Z,72.59
2018-06-01T04:38:20.205Z,72.37
2018-06-01T04:40:48.677Z,72.29
2018-06-01T04:43:17.068Z,71.74
2018-06-01T04:45:45.394Z,71.66
2018-06-01T04:48:13.742Z,71.54
2018-06-01T04:50:42.273Z,71.68
2018-06-01T04:53:10.645Z,71.97
2018-06-01T04:55:38.968Z,71.67
2018-06-01T04:58:09.681Z,71.51
2018-06-01T05:00:37.999Z,71.25
2018-06-01T05:03:06.332Z,71.33
2018-06-01T05:05:35.202Z,70.96
2018-06-01T05:08:03.552Z,71.46
2018-06-01T05:10:31.856Z,71.42
2018-06-01T05:13:00.651Z,70.72
2018-06-01T05:15:28.974Z,70.76
2018-06-01T05:17:57.296Z,70.48
2018-06-01T05:20:26.595Z,69.81
2018-06-01T05:22:54.943Z,69.54
2018-06-01T05:25:23.264Z,69.11
2018-06-01T05:27:52.727Z,69.23
2018-06-01T05:30:21.225Z,68.90
2018-06-01T05:32:49.543Z,68.74
2018-06-01T05:35:18.496Z,68.14
2018-06-01T05:37:46.841Z,67.44
2018-06-01T05:40:15.134Z,67.41
2018-06-01T05:42:43.492Z,67.00
2018-06-01T05:45:11.825Z,66.90
2018-06-01T05:47:40.178Z,66.49
2018-06-01T05:50:09.277Z,66.83
2018-06-01T05:52:37.593Z,67.24
2018-06-01T05:55:05.893Z,67.59
2018-06-01T05:57:34.250Z,67.03
2018-06-01T06:00:02.559Z,67.00
2018-06-01T06:02:30.883Z,66.96
2018-06-01T06:04:59.552Z,66.92
2018-06-01T06:07:28.017Z,66.47
2018-06-01T06:09:56.310Z,65.81
2018-06-01T06:12:25.434Z,65.88
2018-06-01T06:14:53.748Z,65.71
2018-06-01T06:17:22.122Z,65.73
2018-06-01T06:19:50.920Z,66.49
2018-06-01T06:22:19.208Z,66.35
2018-06-01T06:24:47.724Z,66.42
2018-06-01T06:27:16.859Z,65.70
2018-06-01T06:29:45.241Z,65.04
2018-06-01T06:32:13.629Z,65.44
2018-06-01T06:34:41.977Z,66.00
2018-06-01T06:37:10.283Z,66.52
2018-06-01T06:39:38.603Z,66.10
2018-06-01T06:42:08.049Z,66.13
2018-06-01T06:44:36.343Z,66.29
2018-06-01T06:47:04.674Z,66.12
2018-06-01T06:49:33.001Z,66.14
2018-06-01T06:52:01.341Z,66.28
2018-06-01T06:54:29.637Z,66.51
2018-06-01T06:56:58.537Z,65.52
2018-06-01T06:59:26.841Z,65.65
2018-06-01T07:01:55.165Z,65.19
2018-06-01T07:04:24.273Z,64.56
2018-06-01T07:06:52.637Z,64.20
2018-06-01T07:09:20.958Z,63.63
2018-06-01T07:11:49.338Z,63.84
2018-06-01T07:14:18.028Z,64.22
2018-06-01T07:16:46.417Z,63.99
2018-06-01T07:19:14.771Z,63.71
2018-06-01T07:21:43.078Z,64.56
2018-06-01T07:24:11.400Z,64.10
2018-06-01T07:26:39.778Z,63.74
2018-06-01T07:29:08.074Z,63.45
2018-06-01T07:31:36.401Z,62.79
2018-06-01T07:34:04.733Z,62.28
2018-06-01T07:36:33.041Z,62.48
2018-06-01T07:39:01.369Z,63.27
2018-06-01T07:41:30.417Z,62.57
2018-06-01T07:43:58.759Z,62.83
2018-06-01T07:46:27.092Z,62.68
2018-06-01T07:48:55.521Z,62.19
2018-06-01T07:51:23.875Z,62.37
2018-06-01T07:53:52.320Z,62.19
2018-06-01T07:56:20.713Z,61.72
2018-06-01T07:58:49.039Z,60.88
2018-06-01T08:01:17.487Z,60.38
2018-06-01T08:03:45.949Z,60.73
2018-06-01T08:06:14.270Z,61.27
2018-06-01T08:08:42.593Z,61.37
2018-06-01T08:11:11.467Z,61.77
2018-06-01T08:13:39.766Z,61.95
2018-06-01T08:16:08.078Z,61.44
2018-06-01T08:18:36.663Z,61.83
2018-06-01T08:21:04.965Z,61.26
2018-06-01T08:23:33.292Z,60.58
2018-06-01T08:26:02.684Z,60.41
2018-06-01T08:28:31.012Z,59.90
2018-06-01T08:30:59.318Z,59.55
2018-06-01T08:33:28.178Z,59.16
2018-06-01T08:35:56.555Z,59.94
2018-06-01T08:38:24.896Z,59.90
2018-06-01T08:40:53.246Z,59.50
2018-06-01T08:43:21.575Z,58.78
2018-06-01T08:45:49.901Z,58.67
2018-06-01T08:48:18.327Z,58.98
2018-06-01T08:50:46.685Z,59.20
2018-06-01T08:53:15.010Z,59.01
2018-06-01T08:55:43.613Z,58.65
2018-06-01T08:58:11.961Z,58.13
2018-06-01T09:00:40.246Z,57.74
2018-06-01T09:03:08.595Z,57.93
2018-06-01T09:05:37.769Z,57.81
2018-06-01T09:08:06.071Z,59.10
2018-06-01T09:10:35.182Z,59.10
2018-06-01T09:13:03.521Z,58.32
2018-06-01T09:15:31.849Z,58.18
2018-06-01T09:18:00.359Z,60.43
2018-06-01T09:20:28.661Z,60.29
2018-06-01T09:22:56.994Z,59.06
2018-06-01T09:25:25.376Z,57.91
2018-06-01T09:27:53.800Z,57.10
2018-06-01T09:30:22.190Z,57.35
2018-06-01T09:32:51.189Z,56.81
2018-06-01T09:35:19.542Z,57.62
2018-06-01T09:37:47.926Z,58.45
2018-06-01T09:40:16.482Z,57.20
2018-06-01T09:42:44.809Z,56.03
2018-06-01T09:45:13.111Z,55.95
2018-06-01T09:47:41.462Z,52.81
2018-06-01T09:50:09.761Z,51.08
2018-06-01T09:52:38.090Z,50.14
2018-06-01T09:55:06.508Z,52.48
2018-06-01T09:57:34.805Z,49.42
2018-06-01T10:00:03.111Z,49.44
2018-06-01T10:02:32.849Z,50.75
2018-06-01T10:05:01.187Z,48.76
2018-06-01T10:07:29.503Z,47.22
2018-06-01T10:10:03.524Z,47.02
2018-06-01T10:12:31.838Z,48.49
2018-06-01T10:15:00.148Z,48.09
2018-06-01T10:17:28.809Z,46.76
2018-06-01T10:19:57.121Z,47.41
2018-06-01T10:22:25.465Z,47.67
2018-06-01T10:24:53.882Z,50.79
2018-06-01T10:27:22.237Z,51.21
2018-06-01T10:29:50.645Z,49.62
2018-06-01T10:32:19.057Z,47.13
2018-06-01T10:34:47.493Z,47.09
2018-06-01T10:37:15.836Z,47.71
2018-06-01T10:39:45.173Z,46.45
2018-06-01T10:42:13.485Z,45.44
2018-06-01T10:44:41.823Z,47.55
2018-06-01T10:47:10.542Z,47.18
2018-06-01T10:49:38.890Z,46.16
2018-06-01T10:52:07.948Z,45.07
2018-06-01T10:54:36.659Z,46.00
2018-06-01T10:57:05.053Z,45.21
2018-06-01T10:59:33.394Z,48.48
2018-06-01T11:02:01.905Z,49.85
2018-06-01T11:04:30.225Z,50.35
2018-06-01T11:06:58.557Z,50.96
2018-06-01T11:09:28.147Z,49.10
2018-06-01T11:11:56.579Z,48.30
2018-06-01T11:14:24.981Z,47.76
2018-06-01T11:16:53.730Z,48.27
2018-06-01T11:19:22.063Z,50.10
2018-06-01T11:21:50.431Z,48.54
2018-06-01T11:24:19.513Z,46.88
2018-06-01T11:26:47.900Z,47.14
2018-06-01T11:29:16.310Z,48.70
2018-06-01T11:31:45.248Z,47.35
2018-06-01T11:34:13.553Z,45.77
2018-06-01T11:36:41.861Z,46.12
2018-06-01T11:39:10.262Z,44.96
2018-06-01T11:41:39.184Z,45.34
2018-06-01T11:44:07.498Z,46.34
2018-06-01T11:46:36.428Z,46.37
2018-06-01T11:49:04.733Z,45.51
2018-06-01T11:51:33.054Z,45.81
2018-06-01T11:54:01.964Z,44.12
2018-06-01T11:56:30.275Z,43.33
2018-06-01T11:58:58.596Z,43.27
2018-06-01T12:01:27.221Z,41.58
2018-06-01T12:03:55.616Z,41.34
2018-06-01T12:06:23.952Z,43.34
2018-06-01T12:08:52.907Z,43.18
2018-06-01T12:11:21.247Z,41.39
2018-06-01T12:13:49.602Z,40.13
2018-06-01T12:16:18.073Z,39.86
2018-06-01T12:18:46.475Z,40.48
2018-06-01T12:21:14.808Z,42.09
2018-06-01T12:23:43.368Z,42.51
2018-06-01T12:26:11.682Z,43.76
2018-06-01T12:28:39.977Z,42.16
2018-06-01T12:31:08.311Z,41.82
2018-06-01T12:33:36.625Z,41.76
2018-06-01T12:36:04.930Z,41.97
2018-06-01T12:38:33.902Z,42.93
2018-06-01T12:41:02.245Z,41.02
2018-06-01T12:43:30.556Z,40.30
2018-06-01T12:45:58.928Z,40.78
2018-06-01T12:48:27.258Z,40.20
2018-06-01T12:50:55.637Z,39.51
2018-06-01T12:53:24.108Z,40.07
2018-06-01T12:55:52.466Z,38.59
2018-06-01T12:58:20.820Z,38.42
2018-06-01T13:00:49.265Z,38.01
2018-06-01T13:03:17.626Z,38.17
2018-06-01T13:05:46.023Z,37.17
2018-06-01T13:08:14.360Z,36.45
2018-06-01T13:10:42.689Z,38.29
2018-06-01T13:13:12.485Z,40.87
2018-06-01T13:15:41.166Z,39.67
2018-06-01T13:18:09.535Z,40.74
2018-06-01T13:20:37.939Z,41.42
2018-06-01T13:23:06.212Z,39.77
2018-06-01T13:25:34.562Z,39.26
2018-06-01T13:28:02.872Z,38.61
2018-06-01T13:30:31.209Z,39.06
2018-06-01T13:32:59.509Z,41.19
2018-06-01T13:35:27.888Z,39.97
2018-06-01T13:37:56.167Z,39.75
2018-06-01T13:40:24.540Z,39.37
2018-06-01T13:42:52.916Z,40.04
2018-06-01T13:45:21.736Z,39.49
2018-06-01T13:47:50.065Z,38.57
2018-06-01T13:50:18.421Z,38.25
2018-06-01T13:52:46.777Z,38.11
2018-06-01T13:55:15.129Z,40.05
2018-06-01T13:57:43.454Z,39.66
2018-06-01T14:00:11.873Z,38.83
2018-06-01T14:02:40.171Z,38.37
2018-06-01T14:05:08.489Z,36.60
2018-06-01T14:07:36.816Z,36.72
2018-06-01T14:10:05.146Z,37.27
2018-06-01T14:12:33.446Z,38.73
2018-06-01T14:15:01.972Z,39.87
2018-06-01T14:17:30.273Z,40.69
2018-06-01T14:19:58.589Z,42.21
2018-06-01T14:22:26.969Z,42.89
2018-06-01T14:24:55.311Z,42.06
2018-06-01T14:27:23.745Z,43.51
2018-06-01T14:29:52.175Z,43.26
2018-06-01T14:32:20.485Z,45.12
2018-06-01T14:34:48.818Z,42.51
2018-06-01T14:37:18.021Z,43.84
2018-06-01T14:39:46.387Z,44.45
2018-06-01T14:42:14.712Z,45.75
2018-06-01T14:44:44.403Z,46.99
2018-06-01T14:47:12.774Z,48.51
2018-06-01T14:49:41.380Z,46.40
2018-06-01T14:52:10.253Z,43.49
2018-06-01T14:54:38.576Z,41.23
2018-06-01T14:57:06.883Z,39.86
2018-06-01T14:59:36.022Z,39.45
2018-06-01T15:02:04.325Z,39.35
2018-06-01T15:04:32.653Z,38.85
2018-06-01T15:07:01.042Z,38.49
2018-06-01T15:09:29.359Z,38.10
2018-06-01T15:11:57.773Z,41.30
2018-06-01T15:14:26.124Z,40.29
2018-06-01T15:16:54.409Z,40.15
2018-06-01T15:19:22.917Z,40.37
2018-06-01T15:21:51.575Z,44.62
2018-06-01T15:24:19.907Z,45.94
2018-06-01T15:26:48.290Z,44.02
2018-06-01T15:29:16.924Z,46.33
2018-06-01T15:31:45.262Z,47.99
2018-06-01T15:34:13.596Z,46.66
2018-06-01T15:36:41.937Z,47.00
2018-06-01T15:39:10.237Z,47.46
2018-06-01T15:41:38.557Z,48.74
2018-06-01T15:44:07.687Z,48.83
2018-06-01T15:46:36.007Z,48.75
2018-06-01T15:49:04.373Z,47.71
2018-06-01T15:51:32.665Z,44.03
2018-06-01T15:54:01.004Z,46.35
2018-06-01T15:56:29.309Z,48.01
2018-06-01T15:58:58.546Z,46.25
2018-06-01T16:01:26.887Z,44.49
2018-06-01T16:03:55.236Z,47.15
2018-06-01T16:06:23.888Z,44.94
2018-06-01T16:08:52.261Z,43.95
2018-06-01T16:11:20.638Z,43.12
2018-06-01T16:13:49.634Z,43.45
2018-06-01T16:16:18.033Z,43.53
2018-06-01T16:18:46.705Z,42.76
2018-06-01T16:21:15.073Z,43.74
2018-06-01T16:23:43.424Z,43.77
2018-06-01T16:26:11.721Z,44.71
2018-06-01T16:28:40.123Z,45.37
2018-06-01T16:31:08.410Z,46.53
2018-06-01T16:33:36.745Z,47.73
2018-06-01T16:36:05.116Z,48.52
2018-06-01T16:38:33.459Z,47.82
2018-06-01T16:41:01.778Z,47.04
2018-06-01T16:43:30.261Z,47.31
2018-06-01T16:45:58.557Z,48.08
2018-06-01T16:48:26.898Z,47.38
2018-06-01T16:50:56.250Z,47.50
2018-06-01T16:53:24.656Z,47.69
2018-06-01T16:55:53.038Z,48.36
2018-06-01T16:58:21.420Z,48.48
2018-06-01T17:00:49.796Z,49.43
2018-06-01T17:03:18.139Z,50.17
2018-06-01T17:05:46.621Z,50.96
2018-06-01T17:08:14.962Z,51.83
2018-06-01T17:10:43.284Z,50.66
2018-06-01T17:13:11.652Z,49.69
2018-06-01T17:15:40.011Z,49.94
2018-06-01T17:18:08.479Z,51.57
2018-06-01T17:20:37.198Z,52.73
2018-06-01T17:23:05.543Z,52.72
2018-06-01T17:25:33.884Z,52.79
2018-06-01T17:28:02.222Z,52.71
2018-06-01T17:30:30.543Z,53.53
2018-06-01T17:32:58.898Z,54.36
2018-06-01T17:35:27.269Z,54.10
2018-06-01T17:37:56.202Z,54.69
2018-06-01T17:40:24.667Z,55.03
2018-06-01T17:42:53.141Z,55.32
2018-06-01T17:45:21.545Z,54.29
2018-06-01T17:47:49.985Z,52.71
2018-06-01T17:50:18.707Z,51.66
2018-06-01T17:52:47.089Z,51.09
2018-06-01T17:55:15.541Z,50.83
2018-06-01T17:57:45.222Z,51.36
2018-06-01T18:00:13.594Z,51.93
2018-06-01T18:02:41.929Z,52.40
2018-06-01T18:05:10.736Z,52.41
2018-06-01T18:07:39.155Z,52.33
2018-06-01T18:10:07.504Z,52.13
2018-06-01T18:12:35.872Z,52.91
2018-06-01T18:15:04.218Z,54.06
2018-06-01T18:17:32.524Z,54.30
2018-06-01T18:20:01.301Z,54.55
2018-06-01T18:22:29.680Z,54.63
2018-06-01T18:24:57.926Z,55.24
2018-06-01T18:27:26.381Z,55.77
2018-06-01T18:29:54.767Z,55.88
2018-06-01T18:32:23.096Z,56.29
2018-06-01T18:34:51.545Z,56.61
2018-06-01T18:37:19.965Z,56.60
2018-06-01T18:39:48.369Z,57.39
2018-06-01T18:42:17.138Z,57.53
2018-06-01T18:44:45.491Z,57.89
2018-06-01T18:47:14.041Z,57.97
2018-06-01T18:49:42.431Z,58.29
2018-06-01T18:52:10.755Z,58.32
2018-06-01T18:54:39.137Z,58.75
2018-06-01T18:57:08.253Z,59.30
2018-06-01T18:59:36.529Z,59.48
2018-06-01T19:02:04.924Z,59.93
2018-06-01T19:04:33.269Z,60.11
2018-06-01T19:07:01.594Z,60.53
2018-06-01T19:09:29.916Z,60.71
2018-06-01T19:11:58.657Z,61.26
2018-06-01T19:14:26.971Z,61.82
2018-06-01T19:16:55.319Z,62.20
2018-06-01T19:19:23.833Z,62.44
2018-06-01T19:21:52.258Z,62.95
2018-06-01T19:24:20.803Z,62.94
2018-06-01T19:26:49.865Z,62.75
2018-06-01T19:29:18.264Z,63.00
2018-06-01T19:31:46.668Z,62.84
2018-06-01T19:34:15.118Z,62.71
2018-06-01T19:36:43.457Z,63.38
2018-06-01T19:39:11.776Z,63.63
2018-06-01T19:41:40.161Z,63.85
2018-06-01T19:44:08.464Z,64.32
2018-06-01T19:46:36.775Z,65.14
2018-06-01T19:49:05.092Z,65.38
2018-06-01T19:51:33.471Z,65.42
2018-06-01T19:54:01.775Z,65.42
2018-06-01T19:56:30.722Z,65.52
2018-06-01T19:58:59.075Z,65.53
2018-06-01T20:01:27.398Z,65.78
2018-06-01T20:03:55.840Z,65.67
2018-06-01T20:06:24.278Z,65.24
2018-06-01T20:08:52.656Z,65.16
2018-06-01T20:11:21.840Z,65.75
2018-06-01T20:13:50.233Z,65.89
2018-06-01T20:16:18.605Z,66.12
2018-06-01T20:18:46.985Z,66.44
2018-06-01T20:21:15.333Z,66.94
2018-06-01T20:23:43.647Z,66.69
2018-06-01T20:26:12.012Z,66.74
2018-06-01T20:28:40.301Z,67.34
2018-06-01T20:31:08.628Z,68.41
2018-06-01T20:33:37.200Z,69.31
2018-06-01T20:36:05.561Z,69.92
2018-06-01T20:38:33.877Z,69.80
2018-06-01T20:41:02.198Z,69.70
2018-06-01T20:43:30.825Z,69.20
2018-06-01T20:45:59.528Z,68.99
2018-06-01T20:48:29.902Z,69.05
2018-06-01T20:50:58.259Z,69.37
2018-06-01T20:53:26.549Z,68.86
2018-06-01T20:55:55.007Z,68.47
2018-06-01T20:58:23.387Z,68.37
2018-06-01T21:00:52.034Z,66.79
2018-06-01T21:03:21.976Z,66.04
2018-06-01T21:05:50.804Z,65.40
2018-06-01T21:08:19.293Z,65.11
2018-06-01T21:10:47.865Z,64.07
2018-06-01T21:13:17.224Z,63.31
2018-06-01T21:15:45.586Z,63.63
2018-06-01T21:18:14.719Z,63.43
2018-06-01T21:20:43.904Z,63.75
2018-06-01T21:23:12.292Z,63.49
2018-06-01T21:25:40.633Z,63.72
2018-06-01T21:28:08.954Z,63.47
2018-06-01T21:30:37.286Z,63.37
2018-06-01T21:33:05.618Z,63.30
2018-06-01T21:35:33.913Z,63.46
2018-06-01T21:38:02.234Z,63.56
2018-06-01T21:40:31.580Z,63.92
2018-06-01T21:42:59.897Z,63.92
2018-06-01T21:45:28.226Z,64.45
2018-06-01T21:47:57.061Z,64.90
2018-06-01T21:50:25.442Z,64.75
2018-06-01T21:52:53.896Z,63.62
2018-06-01T21:55:22.250Z,63.95
2018-06-01T21:57:50.638Z,63.42
2018-06-01T22:00:19.039Z,63.44
2018-06-01T22:02:47.387Z,63.31
2018-06-01T22:05:17.482Z,63.11
2018-06-01T22:07:45.807Z,63.36
2018-06-01T22:10:14.160Z,63.41
2018-06-01T22:12:42.478Z,63.38
2018-06-01T22:15:10.772Z,63.88
2018-06-01T22:17:39.671Z,64.18
2018-06-01T22:20:08.001Z,65.35
2018-06-01T22:22:36.334Z,65.82
2018-06-01T22:25:05.460Z,65.80
2018-06-01T22:27:33.749Z,65.77
2018-06-01T22:30:02.071Z,66.10
2018-06-01T22:32:31.154Z,66.34
2018-06-01T22:34:59.462Z,66.03
2018-06-01T22:37:27.806Z,66.14
2018-06-01T22:39:56.169Z,67.16
2018-06-01T22:42:24.538Z,66.98
2018-06-01T22:44:52.898Z,66.84
2018-06-01T22:47:21.257Z,67.71
2018-06-01T22:49:49.597Z,66.70
2018-06-01T22:52:18.077Z,66.82
2018-06-01T22:54:46.618Z,66.60
2018-06-01T22:57:14.935Z,65.83
2018-06-01T22:59:44.274Z,65.52
2018-06-01T23:02:12.606Z,66.43
2018-06-01T23:04:40.968Z,66.09
2018-06-01T23:07:09.275Z,66.16
2018-06-01T23:09:37.713Z,65.66
2018-06-01T23:12:06.024Z,65.61
2018-06-01T23:14:34.427Z,65.84
2018-06-01T23:17:02.698Z,67.01
2018-06-01T23:19:31.022Z,68.04
2018-06-01T23:21:59.384Z,68.46
2018-06-01T23:24:27.737Z,68.78
2018-06-01T23:26:56.091Z,69.00
2018-06-01T23:29:24.451Z,69.23
2018-06-01T23:31:52.829Z,68.88
2018-06-01T23:34:21.127Z,68.89
2018-06-01T23:36:49.573Z,68.92
2018-06-01T23:39:17.967Z,69.06
2018-06-01T23:41:46.311Z,69.27
2018-06-01T23:44:14.620Z,69.40
2018-06-01T23:46:44.155Z,69.56
2018-06-01T23:49:12.465Z,69.64
2018-06-01T23:51:40.788Z,69.85
2018-06-01T23:54:10.034Z,70.29
2018-06-01T23:56:38.336Z,70.28
2018-06-01T23:59:06.664Z,70.24
